This is the latest recevied weather packets stored in our database for station/object DL8TF-13. If no packets are shown the sender has not sent any weather packets the latest 1 day(s).
| Time | Temp. | Humidity | Pressure | Rain* | Wind** | Luminosity | Snow |
|---|---|---|---|---|---|---|---|
| 1777739022 | 29.44° C | 14% | 984 hPa | - | - | - | - |
| 1777738422 | 29.44° C | 15% | 985 hPa | - | - | - | - |
| 1777737822 | 29.44° C | 13% | 985 hPa | - | - | - | - |
| 1777737222 | 29.44° C | 14% | 985 hPa | - | - | - | - |
| 1777736622 | 30° C | 12% | 985 hPa | - | - | - | - |
| 1777736022 | 31.11° C | 12% | 985 hPa | - | - | - | - |
| 1777735422 | 31.11° C | 12% | 985 hPa | - | - | - | - |
| 1777734822 | 31.67° C | 12% | 985 hPa | - | - | - | - |
| 1777734222 | 32.78° C | 12% | 986 hPa | - | - | - | - |
| 1777733622 | 32.78° C | 11% | 986 hPa | - | - | - | - |
| 1777733022 | 34.44° C | 10% | 986 hPa | - | - | - | - |
| 1777732421 | 38.89° C | 7% | 986 hPa | - | - | - | - |
| 1777731821 | 37.78° C | 7% | 986 hPa | - | - | - | - |
| 1777731221 | 36.67° C | 8% | 986 hPa | - | - | - | - |
| 1777730621 | 41.11° C | 5% | 986 hPa | - | - | - | - |
| 1777730021 | 42.22° C | 6% | 986 hPa | - | - | - | - |
| 1777729421 | 39.44° C | 6% | 987 hPa | - | - | - | - |
| 1777728821 | 39.44° C | 7% | 987 hPa | - | - | - | - |
| 1777728221 | 40.56° C | 7% | 987 hPa | - | - | - | - |
| 1777727621 | 40° C | 6% | 987 hPa | - | - | - | - |
| 1777727021 | 39.44° C | 7% | 987 hPa | - | - | - | - |
| 1777726421 | 38.89° C | 6% | 987 hPa | - | - | - | - |
| 1777725821 | 39.44° C | 8% | 987 hPa | - | - | - | - |
| 1777725221 | 38.33° C | 8% | 988 hPa | - | - | - | - |
| 1777724621 | 37.22° C | 10% | 988 hPa | - | - | - | - |
* Rain since midnight (hover to see other rain measurements)
** Current wind speed in m/s (hover to see current wind gust speed)